sensor_id;sensor_type;location;lat;lon;timestamp;P1;durP1;ratioP1;P2;durP2;ratioP2
69835;SDS011;57132;51.972;4.450;2023-03-13T00:01:57;38.28;;;9.38;;
69835;SDS011;57132;51.972;4.450;2023-03-13T00:04:22;40.42;;;9.63;;
69835;SDS011;57132;51.972;4.450;2023-03-13T00:06:48;43.60;;;9.80;;
69835;SDS011;57132;51.972;4.450;2023-03-13T00:09:14;46.63;;;10.40;;
69835;SDS011;57132;51.972;4.450;2023-03-13T00:11:40;33.95;;;10.88;;
69835;SDS011;57132;51.972;4.450;2023-03-13T00:14:06;44.80;;;11.18;;
69835;SDS011;57132;51.972;4.450;2023-03-13T00:16:32;36.08;;;10.98;;
69835;SDS011;57132;51.972;4.450;2023-03-13T00:19:02;34.33;;;10.13;;
69835;SDS011;57132;51.972;4.450;2023-03-13T00:21:29;33.75;;;11.05;;
69835;SDS011;57132;51.972;4.450;2023-03-13T00:23:54;36.08;;;10.45;;
69835;SDS011;57132;51.972;4.450;2023-03-13T00:26:21;47.40;;;12.18;;
69835;SDS011;57132;51.972;4.450;2023-03-13T00:28:48;35.50;;;10.93;;
69835;SDS011;57132;51.972;4.450;2023-03-13T00:31:16;30.60;;;11.30;;
69835;SDS011;57132;51.972;4.450;2023-03-13T00:33:47;42.60;;;11.88;;
69835;SDS011;57132;51.972;4.450;2023-03-13T00:36:17;38.47;;;10.52;;
69835;SDS011;57132;51.972;4.450;2023-03-13T00:38:45;44.42;;;11.80;;
69835;SDS011;57132;51.972;4.450;2023-03-13T00:41:12;33.13;;;11.10;;
69835;SDS011;57132;51.972;4.450;2023-03-13T00:43:39;34.83;;;12.10;;
69835;SDS011;57132;51.972;4.450;2023-03-13T00:46:06;30.13;;;11.07;;
69835;SDS011;57132;51.972;4.450;2023-03-13T00:48:32;41.00;;;12.35;;
69835;SDS011;57132;51.972;4.450;2023-03-13T00:50:58;37.97;;;12.55;;
69835;SDS011;57132;51.972;4.450;2023-03-13T00:53:24;38.58;;;12.88;;
69835;SDS011;57132;51.972;4.450;2023-03-13T00:55:50;42.53;;;14.18;;
69835;SDS011;57132;51.972;4.450;2023-03-13T00:58:16;39.47;;;13.13;;
69835;SDS011;57132;51.972;4.450;2023-03-13T01:00:41;34.92;;;12.95;;
69835;SDS011;57132;51.972;4.450;2023-03-13T01:03:06;49.42;;;14.10;;
69835;SDS011;57132;51.972;4.450;2023-03-13T01:05:32;42.65;;;15.13;;
69835;SDS011;57132;51.972;4.450;2023-03-13T01:07:57;42.67;;;15.90;;
69835;SDS011;57132;51.972;4.450;2023-03-13T01:10:22;50.80;;;15.73;;
69835;SDS011;57132;51.972;4.450;2023-03-13T01:12:48;48.72;;;17.40;;
69835;SDS011;57132;51.972;4.450;2023-03-13T01:15:14;48.10;;;19.08;;
69835;SDS011;57132;51.972;4.450;2023-03-13T01:17:42;46.83;;;16.15;;
69835;SDS011;57132;51.972;4.450;2023-03-13T01:20:08;47.40;;;17.77;;
69835;SDS011;57132;51.972;4.450;2023-03-13T01:22:33;47.70;;;19.75;;
69835;SDS011;57132;51.972;4.450;2023-03-13T01:24:59;43.90;;;19.17;;
69835;SDS011;57132;51.972;4.450;2023-03-13T01:27:24;44.05;;;18.20;;
69835;SDS011;57132;51.972;4.450;2023-03-13T01:29:49;51.58;;;19.23;;
69835;SDS011;57132;51.972;4.450;2023-03-13T01:32:15;48.55;;;20.48;;
69835;SDS011;57132;51.972;4.450;2023-03-13T01:34:40;47.47;;;19.70;;
69835;SDS011;57132;51.972;4.450;2023-03-13T01:37:05;40.17;;;19.15;;
69835;SDS011;57132;51.972;4.450;2023-03-13T01:39:31;61.47;;;21.67;;
69835;SDS011;57132;51.972;4.450;2023-03-13T01:41:56;53.50;;;22.08;;
69835;SDS011;57132;51.972;4.450;2023-03-13T01:44:23;56.53;;;20.92;;
69835;SDS011;57132;51.972;4.450;2023-03-13T01:46:49;55.63;;;21.75;;
69835;SDS011;57132;51.972;4.450;2023-03-13T01:56:50;59.97;;;23.65;;
69835;SDS011;57132;51.972;4.450;2023-03-13T01:59:41;65.75;;;24.20;;
69835;SDS011;57132;51.972;4.450;2023-03-13T02:02:08;62.55;;;23.50;;
69835;SDS011;57132;51.972;4.450;2023-03-13T02:04:37;56.80;;;22.27;;
69835;SDS011;57132;51.972;4.450;2023-03-13T02:09:36;59.97;;;22.35;;
69835;SDS011;57132;51.972;4.450;2023-03-13T02:14:32;50.53;;;21.33;;
69835;SDS011;57132;51.972;4.450;2023-03-13T02:17:01;51.47;;;23.63;;
69835;SDS011;57132;51.972;4.450;2023-03-13T02:24:32;53.85;;;23.90;;
69835;SDS011;57132;51.972;4.450;2023-03-13T02:27:10;54.60;;;23.95;;
69835;SDS011;57132;51.972;4.450;2023-03-13T02:29:36;51.55;;;21.50;;
69835;SDS011;57132;51.972;4.450;2023-03-13T02:32:01;47.47;;;20.73;;
69835;SDS011;57132;51.972;4.450;2023-03-13T02:34:29;49.25;;;19.85;;
69835;SDS011;57132;51.972;4.450;2023-03-13T02:36:57;45.92;;;20.50;;
69835;SDS011;57132;51.972;4.450;2023-03-13T02:39:23;52.38;;;20.10;;
69835;SDS011;57132;51.972;4.450;2023-03-13T02:41:50;41.95;;;18.85;;
69835;SDS011;57132;51.972;4.450;2023-03-13T02:44:17;40.00;;;19.00;;
69835;SDS011;57132;51.972;4.450;2023-03-13T02:46:49;44.42;;;17.60;;
69835;SDS011;57132;51.972;4.450;2023-03-13T02:49:20;39.25;;;17.38;;
69835;SDS011;57132;51.972;4.450;2023-03-13T02:51:48;32.05;;;16.73;;
69835;SDS011;57132;51.972;4.450;2023-03-13T02:54:18;36.53;;;16.00;;
69835;SDS011;57132;51.972;4.450;2023-03-13T02:56:48;42.03;;;18.02;;
69835;SDS011;57132;51.972;4.450;2023-03-13T02:59:17;25.58;;;14.90;;
69835;SDS011;57132;51.972;4.450;2023-03-13T03:01:42;29.05;;;14.45;;
69835;SDS011;57132;51.972;4.450;2023-03-13T03:04:08;27.60;;;13.43;;
69835;SDS011;57132;51.972;4.450;2023-03-13T03:06:33;25.00;;;11.07;;
69835;SDS011;57132;51.972;4.450;2023-03-13T03:08:58;25.88;;;10.43;;
69835;SDS011;57132;51.972;4.450;2023-03-13T03:11:24;25.98;;;11.27;;
69835;SDS011;57132;51.972;4.450;2023-03-13T03:13:49;20.83;;;9.85;;
69835;SDS011;57132;51.972;4.450;2023-03-13T03:16:14;21.38;;;9.77;;
69835;SDS011;57132;51.972;4.450;2023-03-13T03:18:42;25.92;;;8.95;;
69835;SDS011;57132;51.972;4.450;2023-03-13T03:21:08;26.65;;;9.32;;
69835;SDS011;57132;51.972;4.450;2023-03-13T03:23:34;22.65;;;9.73;;
69835;SDS011;57132;51.972;4.450;2023-03-13T03:26:00;25.90;;;10.55;;
69835;SDS011;57132;51.972;4.450;2023-03-13T03:28:27;21.85;;;10.35;;
69835;SDS011;57132;51.972;4.450;2023-03-13T03:30:54;27.38;;;12.07;;
69835;SDS011;57132;51.972;4.450;2023-03-13T03:33:20;24.85;;;13.15;;
69835;SDS011;57132;51.972;4.450;2023-03-13T03:35:46;27.10;;;13.05;;
69835;SDS011;57132;51.972;4.450;2023-03-13T03:38:12;27.58;;;13.40;;
69835;SDS011;57132;51.972;4.450;2023-03-13T03:40:37;39.75;;;15.07;;
69835;SDS011;57132;51.972;4.450;2023-03-13T03:43:02;31.50;;;14.50;;
69835;SDS011;57132;51.972;4.450;2023-03-13T03:45:28;35.47;;;13.15;;
69835;SDS011;57132;51.972;4.450;2023-03-13T03:47:53;30.67;;;13.70;;
69835;SDS011;57132;51.972;4.450;2023-03-13T03:50:19;24.45;;;13.88;;
69835;SDS011;57132;51.972;4.450;2023-03-13T03:52:44;25.90;;;12.55;;
69835;SDS011;57132;51.972;4.450;2023-03-13T03:55:09;26.75;;;13.60;;
69835;SDS011;57132;51.972;4.450;2023-03-13T03:57:35;29.92;;;14.60;;
69835;SDS011;57132;51.972;4.450;2023-03-13T04:00:00;34.17;;;15.65;;
69835;SDS011;57132;51.972;4.450;2023-03-13T04:02:25;35.88;;;14.48;;
69835;SDS011;57132;51.972;4.450;2023-03-13T04:04:51;33.72;;;15.88;;
69835;SDS011;57132;51.972;4.450;2023-03-13T04:07:16;37.65;;;16.25;;
69835;SDS011;57132;51.972;4.450;2023-03-13T04:09:42;35.67;;;15.25;;
69835;SDS011;57132;51.972;4.450;2023-03-13T04:12:07;33.85;;;14.30;;
69835;SDS011;57132;51.972;4.450;2023-03-13T04:14:33;36.30;;;16.75;;
69835;SDS011;57132;51.972;4.450;2023-03-13T04:16:58;37.92;;;15.95;;
69835;SDS011;57132;51.972;4.450;2023-03-13T04:19:23;33.88;;;15.10;;
69835;SDS011;57132;51.972;4.450;2023-03-13T04:21:49;27.95;;;13.80;;
69835;SDS011;57132;51.972;4.450;2023-03-13T04:24:14;34.53;;;15.02;;
69835;SDS011;57132;51.972;4.450;2023-03-13T04:26:39;28.92;;;13.38;;
69835;SDS011;57132;51.972;4.450;2023-03-13T04:29:05;30.45;;;15.25;;
69835;SDS011;57132;51.972;4.450;2023-03-13T04:31:30;41.70;;;17.05;;
69835;SDS011;57132;51.972;4.450;2023-03-13T04:33:57;36.47;;;16.80;;
69835;SDS011;57132;51.972;4.450;2023-03-13T04:36:22;34.28;;;14.70;;
69835;SDS011;57132;51.972;4.450;2023-03-13T04:38:47;33.47;;;15.15;;
69835;SDS011;57132;51.972;4.450;2023-03-13T04:41:13;26.88;;;12.90;;
69835;SDS011;57132;51.972;4.450;2023-03-13T04:43:38;25.65;;;12.00;;
69835;SDS011;57132;51.972;4.450;2023-03-13T04:46:03;24.88;;;12.13;;
69835;SDS011;57132;51.972;4.450;2023-03-13T04:48:29;25.17;;;10.07;;
69835;SDS011;57132;51.972;4.450;2023-03-13T04:50:54;26.65;;;10.23;;
69835;SDS011;57132;51.972;4.450;2023-03-13T04:53:19;31.27;;;9.35;;
69835;SDS011;57132;51.972;4.450;2023-03-13T04:55:45;20.85;;;8.73;;
69835;SDS011;57132;51.972;4.450;2023-03-13T04:58:12;22.55;;;8.30;;
69835;SDS011;57132;51.972;4.450;2023-03-13T05:00:38;18.77;;;7.88;;
69835;SDS011;57132;51.972;4.450;2023-03-13T05:03:05;22.10;;;7.00;;
69835;SDS011;57132;51.972;4.450;2023-03-13T05:05:30;22.00;;;7.97;;
69835;SDS011;57132;51.972;4.450;2023-03-13T05:07:58;14.77;;;6.60;;
69835;SDS011;57132;51.972;4.450;2023-03-13T05:10:23;15.57;;;7.28;;
69835;SDS011;57132;51.972;4.450;2023-03-13T05:12:48;15.13;;;7.43;;
69835;SDS011;57132;51.972;4.450;2023-03-13T05:15:14;20.58;;;7.35;;
69835;SDS011;57132;51.972;4.450;2023-03-13T05:17:39;25.55;;;7.40;;
69835;SDS011;57132;51.972;4.450;2023-03-13T05:20:05;21.83;;;6.75;;
69835;SDS011;57132;51.972;4.450;2023-03-13T05:22:33;17.05;;;6.47;;
69835;SDS011;57132;51.972;4.450;2023-03-13T05:24:59;17.83;;;6.20;;
69835;SDS011;57132;51.972;4.450;2023-03-13T05:27:24;23.73;;;5.72;;
69835;SDS011;57132;51.972;4.450;2023-03-13T05:29:50;20.00;;;6.55;;
69835;SDS011;57132;51.972;4.450;2023-03-13T05:32:15;19.13;;;5.85;;
69835;SDS011;57132;51.972;4.450;2023-03-13T05:34:40;20.98;;;5.90;;
69835;SDS011;57132;51.972;4.450;2023-03-13T05:37:06;27.63;;;5.88;;
69835;SDS011;57132;51.972;4.450;2023-03-13T05:39:31;22.35;;;6.13;;
69835;SDS011;57132;51.972;4.450;2023-03-13T05:41:56;21.73;;;6.15;;
69835;SDS011;57132;51.972;4.450;2023-03-13T05:44:22;21.00;;;6.03;;
69835;SDS011;57132;51.972;4.450;2023-03-13T05:46:47;14.85;;;4.72;;
69835;SDS011;57132;51.972;4.450;2023-03-13T05:49:12;20.48;;;6.28;;
69835;SDS011;57132;51.972;4.450;2023-03-13T05:51:38;15.80;;;5.95;;
69835;SDS011;57132;51.972;4.450;2023-03-13T05:54:03;30.13;;;6.47;;
69835;SDS011;57132;51.972;4.450;2023-03-13T05:56:29;18.20;;;6.25;;
69835;SDS011;57132;51.972;4.450;2023-03-13T05:58:54;17.77;;;5.00;;
69835;SDS011;57132;51.972;4.450;2023-03-13T06:01:19;19.00;;;5.30;;
69835;SDS011;57132;51.972;4.450;2023-03-13T06:03:45;18.42;;;5.65;;
69835;SDS011;57132;51.972;4.450;2023-03-13T06:06:10;19.27;;;5.95;;
69835;SDS011;57132;51.972;4.450;2023-03-13T06:08:35;19.48;;;4.95;;
69835;SDS011;57132;51.972;4.450;2023-03-13T06:11:01;21.42;;;5.97;;
69835;SDS011;57132;51.972;4.450;2023-03-13T06:13:27;15.05;;;6.05;;
69835;SDS011;57132;51.972;4.450;2023-03-13T06:15:53;19.42;;;5.57;;
69835;SDS011;57132;51.972;4.450;2023-03-13T06:18:20;22.65;;;6.43;;
69835;SDS011;57132;51.972;4.450;2023-03-13T06:20:47;18.73;;;6.40;;
69835;SDS011;57132;51.972;4.450;2023-03-13T06:23:13;18.52;;;6.10;;
69835;SDS011;57132;51.972;4.450;2023-03-13T06:25:38;28.38;;;7.18;;
69835;SDS011;57132;51.972;4.450;2023-03-13T06:28:03;24.20;;;7.60;;
69835;SDS011;57132;51.972;4.450;2023-03-13T06:30:30;25.70;;;8.38;;
69835;SDS011;57132;51.972;4.450;2023-03-13T06:32:56;25.48;;;8.23;;
69835;SDS011;57132;51.972;4.450;2023-03-13T06:35:22;24.20;;;8.75;;
69835;SDS011;57132;51.972;4.450;2023-03-13T06:37:47;32.55;;;9.15;;
69835;SDS011;57132;51.972;4.450;2023-03-13T06:40:13;30.42;;;9.85;;
69835;SDS011;57132;51.972;4.450;2023-03-13T06:42:38;27.15;;;9.55;;
69835;SDS011;57132;51.972;4.450;2023-03-13T06:45:04;23.75;;;8.93;;
69835;SDS011;57132;51.972;4.450;2023-03-13T06:47:30;31.52;;;10.82;;
69835;SDS011;57132;51.972;4.450;2023-03-13T06:49:56;25.13;;;10.48;;
69835;SDS011;57132;51.972;4.450;2023-03-13T06:52:22;21.17;;;9.38;;
69835;SDS011;57132;51.972;4.450;2023-03-13T06:54:47;25.48;;;10.07;;
69835;SDS011;57132;51.972;4.450;2023-03-13T06:57:13;22.52;;;8.23;;
69835;SDS011;57132;51.972;4.450;2023-03-13T06:59:38;22.90;;;9.18;;
69835;SDS011;57132;51.972;4.450;2023-03-13T07:02:03;21.45;;;8.43;;
69835;SDS011;57132;51.972;4.450;2023-03-13T07:04:29;30.23;;;10.15;;
69835;SDS011;57132;51.972;4.450;2023-03-13T07:06:54;43.40;;;11.07;;
69835;SDS011;57132;51.972;4.450;2023-03-13T07:09:20;27.23;;;10.15;;
69835;SDS011;57132;51.972;4.450;2023-03-13T07:11:45;26.02;;;10.05;;
69835;SDS011;57132;51.972;4.450;2023-03-13T07:14:11;26.27;;;10.10;;
69835;SDS011;57132;51.972;4.450;2023-03-13T07:16:37;28.77;;;9.15;;
69835;SDS011;57132;51.972;4.450;2023-03-13T07:19:02;23.17;;;9.60;;
69835;SDS011;57132;51.972;4.450;2023-03-13T07:21:27;24.67;;;8.25;;
69835;SDS011;57132;51.972;4.450;2023-03-13T07:23:53;25.83;;;8.55;;
69835;SDS011;57132;51.972;4.450;2023-03-13T07:26:18;24.77;;;8.25;;
69835;SDS011;57132;51.972;4.450;2023-03-13T07:28:44;25.95;;;9.73;;
69835;SDS011;57132;51.972;4.450;2023-03-13T07:31:11;29.17;;;10.02;;
69835;SDS011;57132;51.972;4.450;2023-03-13T07:33:37;23.00;;;8.85;;
69835;SDS011;57132;51.972;4.450;2023-03-13T07:36:03;25.13;;;7.80;;
69835;SDS011;57132;51.972;4.450;2023-03-13T07:38:29;21.42;;;7.82;;
69835;SDS011;57132;51.972;4.450;2023-03-13T07:40:55;25.25;;;8.02;;
69835;SDS011;57132;51.972;4.450;2023-03-13T07:43:22;20.60;;;8.63;;
69835;SDS011;57132;51.972;4.450;2023-03-13T07:45:58;20.55;;;6.75;;
69835;SDS011;57132;51.972;4.450;2023-03-13T07:48:29;21.73;;;6.05;;
69835;SDS011;57132;51.972;4.450;2023-03-13T07:50:56;22.10;;;5.85;;
69835;SDS011;57132;51.972;4.450;2023-03-13T07:53:23;25.05;;;6.63;;
69835;SDS011;57132;51.972;4.450;2023-03-13T07:55:57;19.98;;;5.60;;
69835;SDS011;57132;51.972;4.450;2023-03-13T07:58:25;20.83;;;5.13;;
69835;SDS011;57132;51.972;4.450;2023-03-13T08:00:55;21.08;;;5.60;;
69835;SDS011;57132;51.972;4.450;2023-03-13T08:03:21;16.55;;;5.78;;
69835;SDS011;57132;51.972;4.450;2023-03-13T08:05:55;17.55;;;4.80;;
69835;SDS011;57132;51.972;4.450;2023-03-13T08:08:22;18.65;;;4.90;;
69835;SDS011;57132;51.972;4.450;2023-03-13T08:10:47;16.35;;;4.28;;
69835;SDS011;57132;51.972;4.450;2023-03-13T08:13:13;14.85;;;5.25;;
69835;SDS011;57132;51.972;4.450;2023-03-13T08:15:39;14.35;;;4.93;;
69835;SDS011;57132;51.972;4.450;2023-03-13T08:18:04;17.15;;;5.15;;
69835;SDS011;57132;51.972;4.450;2023-03-13T08:20:30;12.13;;;4.28;;
69835;SDS011;57132;51.972;4.450;2023-03-13T08:22:55;19.83;;;5.22;;
69835;SDS011;57132;51.972;4.450;2023-03-13T08:25:21;13.88;;;4.00;;
69835;SDS011;57132;51.972;4.450;2023-03-13T08:27:47;12.20;;;3.83;;
69835;SDS011;57132;51.972;4.450;2023-03-13T08:30:12;11.00;;;3.78;;
69835;SDS011;57132;51.972;4.450;2023-03-13T08:32:38;18.13;;;4.18;;
69835;SDS011;57132;51.972;4.450;2023-03-13T08:35:03;9.68;;;2.95;;
69835;SDS011;57132;51.972;4.450;2023-03-13T08:37:29;10.48;;;3.30;;
69835;SDS011;57132;51.972;4.450;2023-03-13T08:39:54;14.43;;;4.10;;
69835;SDS011;57132;51.972;4.450;2023-03-13T08:42:20;11.55;;;2.88;;
69835;SDS011;57132;51.972;4.450;2023-03-13T08:44:46;10.40;;;2.92;;
69835;SDS011;57132;51.972;4.450;2023-03-13T08:47:12;17.50;;;4.00;;
69835;SDS011;57132;51.972;4.450;2023-03-13T08:49:37;20.77;;;4.00;;
69835;SDS011;57132;51.972;4.450;2023-03-13T08:52:03;11.32;;;3.17;;
69835;SDS011;57132;51.972;4.450;2023-03-13T08:54:30;17.60;;;3.80;;
69835;SDS011;57132;51.972;4.450;2023-03-13T08:56:55;21.40;;;3.88;;
69835;SDS011;57132;51.972;4.450;2023-03-13T08:59:21;14.15;;;3.53;;
69835;SDS011;57132;51.972;4.450;2023-03-13T09:01:46;11.07;;;2.75;;
69835;SDS011;57132;51.972;4.450;2023-03-13T09:04:11;16.45;;;3.00;;
69835;SDS011;57132;51.972;4.450;2023-03-13T09:06:37;16.75;;;3.03;;
69835;SDS011;57132;51.972;4.450;2023-03-13T09:09:03;18.92;;;3.08;;
69835;SDS011;57132;51.972;4.450;2023-03-13T09:11:30;13.90;;;2.78;;
69835;SDS011;57132;51.972;4.450;2023-03-13T09:13:57;14.63;;;3.08;;
69835;SDS011;57132;51.972;4.450;2023-03-13T09:16:24;9.88;;;2.40;;
69835;SDS011;57132;51.972;4.450;2023-03-13T09:18:52;19.40;;;2.97;;
69835;SDS011;57132;51.972;4.450;2023-03-13T09:21:20;13.48;;;2.97;;
69835;SDS011;57132;51.972;4.450;2023-03-13T09:23:49;9.85;;;2.47;;
69835;SDS011;57132;51.972;4.450;2023-03-13T09:26:15;12.85;;;2.42;;
69835;SDS011;57132;51.972;4.450;2023-03-13T09:28:42;13.35;;;2.60;;
69835;SDS011;57132;51.972;4.450;2023-03-13T09:33:36;14.68;;;2.88;;
69835;SDS011;57132;51.972;4.450;2023-03-13T09:36:04;9.50;;;2.25;;
69835;SDS011;57132;51.972;4.450;2023-03-13T09:38:30;11.60;;;2.55;;
69835;SDS011;57132;51.972;4.450;2023-03-13T09:40:59;9.20;;;2.47;;
69835;SDS011;57132;51.972;4.450;2023-03-13T09:46:21;10.85;;;2.50;;
69835;SDS011;57132;51.972;4.450;2023-03-13T09:49:00;7.90;;;2.47;;
69835;SDS011;57132;51.972;4.450;2023-03-13T09:56:34;5.97;;;1.95;;
69835;SDS011;57132;51.972;4.450;2023-03-13T10:01:53;7.97;;;1.92;;
69835;SDS011;57132;51.972;4.450;2023-03-13T10:04:26;7.07;;;1.65;;
69835;SDS011;57132;51.972;4.450;2023-03-13T10:06:56;6.28;;;2.05;;
69835;SDS011;57132;51.972;4.450;2023-03-13T10:09:31;9.02;;;2.03;;
69835;SDS011;57132;51.972;4.450;2023-03-13T10:14:42;9.45;;;2.88;;
69835;SDS011;57132;51.972;4.450;2023-03-13T10:17:22;5.72;;;1.88;;
69835;SDS011;57132;51.972;4.450;2023-03-13T10:19:55;7.22;;;2.28;;
69835;SDS011;57132;51.972;4.450;2023-03-13T10:22:25;12.43;;;2.45;;
69835;SDS011;57132;51.972;4.450;2023-03-13T10:27:23;15.35;;;2.75;;
69835;SDS011;57132;51.972;4.450;2023-03-13T10:29:49;12.27;;;2.80;;
69835;SDS011;57132;51.972;4.450;2023-03-13T10:32:14;11.77;;;2.65;;
69835;SDS011;57132;51.972;4.450;2023-03-13T10:34:52;13.68;;;2.75;;
69835;SDS011;57132;51.972;4.450;2023-03-13T10:37:31;11.43;;;2.58;;
69835;SDS011;57132;51.972;4.450;2023-03-13T10:42:46;14.02;;;2.72;;
69835;SDS011;57132;51.972;4.450;2023-03-13T10:45:15;12.32;;;2.95;;
69835;SDS011;57132;51.972;4.450;2023-03-13T10:47:44;11.30;;;2.95;;
69835;SDS011;57132;51.972;4.450;2023-03-13T10:50:17;15.07;;;2.65;;
69835;SDS011;57132;51.972;4.450;2023-03-13T10:52:46;13.65;;;2.60;;
69835;SDS011;57132;51.972;4.450;2023-03-13T10:55:23;13.70;;;3.05;;
69835;SDS011;57132;51.972;4.450;2023-03-13T10:58:02;7.53;;;2.40;;
69835;SDS011;57132;51.972;4.450;2023-03-13T11:00:36;14.98;;;2.90;;
69835;SDS011;57132;51.972;4.450;2023-03-13T11:05:41;13.30;;;2.70;;
69835;SDS011;57132;51.972;4.450;2023-03-13T11:08:21;14.27;;;4.25;;
69835;SDS011;57132;51.972;4.450;2023-03-13T11:13:29;17.27;;;2.90;;
69835;SDS011;57132;51.972;4.450;2023-03-13T11:15:56;15.57;;;2.67;;
69835;SDS011;57132;51.972;4.450;2023-03-13T11:18:32;11.95;;;2.60;;
69835;SDS011;57132;51.972;4.450;2023-03-13T11:21:04;18.00;;;3.22;;
69835;SDS011;57132;51.972;4.450;2023-03-13T11:23:33;17.42;;;3.20;;
69835;SDS011;57132;51.972;4.450;2023-03-13T11:31:29;22.70;;;3.78;;
69835;SDS011;57132;51.972;4.450;2023-03-13T11:42:19;24.17;;;4.18;;
69835;SDS011;57132;51.972;4.450;2023-03-13T11:44:52;19.80;;;3.88;;
69835;SDS011;57132;51.972;4.450;2023-03-13T12:01:51;23.40;;;4.32;;
69835;SDS011;57132;51.972;4.450;2023-03-13T12:04:25;24.70;;;4.47;;
69835;SDS011;57132;51.972;4.450;2023-03-13T12:09:27;25.48;;;4.35;;
69835;SDS011;57132;51.972;4.450;2023-03-13T12:12:09;24.50;;;4.22;;
69835;SDS011;57132;51.972;4.450;2023-03-13T12:14:50;23.77;;;4.07;;
69835;SDS011;57132;51.972;4.450;2023-03-13T12:17:25;26.20;;;4.68;;
69835;SDS011;57132;51.972;4.450;2023-03-13T12:20:02;20.48;;;4.07;;
69835;SDS011;57132;51.972;4.450;2023-03-13T12:25:27;28.58;;;5.53;;
69835;SDS011;57132;51.972;4.450;2023-03-13T12:33:56;15.10;;;3.90;;
69835;SDS011;57132;51.972;4.450;2023-03-13T12:39:41;30.87;;;4.67;;
69835;SDS011;57132;51.972;4.450;2023-03-13T12:45:06;22.60;;;4.65;;
69835;SDS011;57132;51.972;4.450;2023-03-13T12:47:54;23.35;;;4.65;;
69835;SDS011;57132;51.972;4.450;2023-03-13T12:50:58;21.42;;;5.03;;
69835;SDS011;57132;51.972;4.450;2023-03-13T12:53:32;28.33;;;4.88;;
69835;SDS011;57132;51.972;4.450;2023-03-13T13:01:33;16.13;;;4.25;;
69835;SDS011;57132;51.972;4.450;2023-03-13T13:04:20;24.85;;;4.13;;
69835;SDS011;57132;51.972;4.450;2023-03-13T13:06:52;21.17;;;3.58;;
69835;SDS011;57132;51.972;4.450;2023-03-13T13:09:29;22.50;;;4.28;;
69835;SDS011;57132;51.972;4.450;2023-03-13T13:11:57;20.90;;;3.85;;
69835;SDS011;57132;51.972;4.450;2023-03-13T13:19:45;22.15;;;4.47;;
69835;SDS011;57132;51.972;4.450;2023-03-13T13:30:27;22.67;;;4.05;;
69835;SDS011;57132;51.972;4.450;2023-03-13T13:32:51;31.38;;;4.53;;
69835;SDS011;57132;51.972;4.450;2023-03-13T13:35:31;36.53;;;5.32;;
69835;SDS011;57132;51.972;4.450;2023-03-13T13:43:41;27.50;;;5.28;;
69835;SDS011;57132;51.972;4.450;2023-03-13T13:56:55;27.48;;;5.50;;
69835;SDS011;57132;51.972;4.450;2023-03-13T13:59:35;24.55;;;5.13;;
69835;SDS011;57132;51.972;4.450;2023-03-13T14:04:37;21.50;;;4.93;;
69835;SDS011;57132;51.972;4.450;2023-03-13T14:07:11;32.92;;;4.93;;
69835;SDS011;57132;51.972;4.450;2023-03-13T14:09:51;26.40;;;4.97;;
69835;SDS011;57132;51.972;4.450;2023-03-13T14:12:25;27.70;;;4.93;;
69835;SDS011;57132;51.972;4.450;2023-03-13T14:15:34;27.38;;;4.55;;
69835;SDS011;57132;51.972;4.450;2023-03-13T14:17:56;32.90;;;6.32;;
69835;SDS011;57132;51.972;4.450;2023-03-13T14:20:37;20.45;;;4.28;;
69835;SDS011;57132;51.972;4.450;2023-03-13T14:25:41;27.70;;;5.63;;
69835;SDS011;57132;51.972;4.450;2023-03-13T14:28:23;26.73;;;5.15;;
69835;SDS011;57132;51.972;4.450;2023-03-13T14:30:52;23.02;;;4.82;;
69835;SDS011;57132;51.972;4.450;2023-03-13T14:33:22;30.48;;;5.13;;
69835;SDS011;57132;51.972;4.450;2023-03-13T14:35:50;19.33;;;3.97;;
69835;SDS011;57132;51.972;4.450;2023-03-13T14:38:17;27.95;;;5.05;;
69835;SDS011;57132;51.972;4.450;2023-03-13T14:40:50;23.83;;;5.13;;
69835;SDS011;57132;51.972;4.450;2023-03-13T14:45:50;21.70;;;4.53;;
69835;SDS011;57132;51.972;4.450;2023-03-13T14:48:20;23.85;;;4.72;;
69835;SDS011;57132;51.972;4.450;2023-03-13T14:50:49;30.67;;;5.10;;
69835;SDS011;57132;51.972;4.450;2023-03-13T14:53:18;22.38;;;5.72;;
69835;SDS011;57132;51.972;4.450;2023-03-13T14:55:45;25.05;;;5.35;;
69835;SDS011;57132;51.972;4.450;2023-03-13T15:00:43;26.55;;;4.57;;
69835;SDS011;57132;51.972;4.450;2023-03-13T15:05:42;18.30;;;4.45;;
69835;SDS011;57132;51.972;4.450;2023-03-13T15:08:12;21.02;;;4.57;;
69835;SDS011;57132;51.972;4.450;2023-03-13T15:10:39;24.65;;;4.32;;
69835;SDS011;57132;51.972;4.450;2023-03-13T15:15:53;18.23;;;5.38;;
69835;SDS011;57132;51.972;4.450;2023-03-13T15:18:23;26.17;;;4.22;;
69835;SDS011;57132;51.972;4.450;2023-03-13T15:21:15;18.98;;;3.95;;
69835;SDS011;57132;51.972;4.450;2023-03-13T15:23:49;19.02;;;4.35;;
69835;SDS011;57132;51.972;4.450;2023-03-13T15:26:17;21.75;;;4.45;;
69835;SDS011;57132;51.972;4.450;2023-03-13T15:28:43;18.58;;;3.83;;
69835;SDS011;57132;51.972;4.450;2023-03-13T15:31:09;21.50;;;4.30;;
69835;SDS011;57132;51.972;4.450;2023-03-13T15:33:37;25.77;;;4.72;;
69835;SDS011;57132;51.972;4.450;2023-03-13T15:36:03;24.83;;;5.70;;
69835;SDS011;57132;51.972;4.450;2023-03-13T15:38:29;24.20;;;4.80;;
69835;SDS011;57132;51.972;4.450;2023-03-13T15:40:54;30.90;;;4.35;;
69835;SDS011;57132;51.972;4.450;2023-03-13T15:43:21;32.85;;;5.30;;
69835;SDS011;57132;51.972;4.450;2023-03-13T15:45:47;26.40;;;4.35;;
69835;SDS011;57132;51.972;4.450;2023-03-13T15:48:17;23.45;;;4.47;;
69835;SDS011;57132;51.972;4.450;2023-03-13T15:50:44;21.88;;;4.30;;
69835;SDS011;57132;51.972;4.450;2023-03-13T15:55:43;24.80;;;5.32;;
69835;SDS011;57132;51.972;4.450;2023-03-13T15:58:10;30.33;;;4.07;;
69835;SDS011;57132;51.972;4.450;2023-03-13T16:00:37;28.05;;;4.75;;
69835;SDS011;57132;51.972;4.450;2023-03-13T16:03:03;20.98;;;4.30;;
69835;SDS011;57132;51.972;4.450;2023-03-13T16:05:29;22.25;;;4.45;;
69835;SDS011;57132;51.972;4.450;2023-03-13T16:07:54;26.83;;;4.57;;
69835;SDS011;57132;51.972;4.450;2023-03-13T16:10:21;29.92;;;5.75;;
69835;SDS011;57132;51.972;4.450;2023-03-13T16:12:48;26.88;;;4.25;;
69835;SDS011;57132;51.972;4.450;2023-03-13T16:15:14;24.48;;;4.75;;
69835;SDS011;57132;51.972;4.450;2023-03-13T16:17:39;23.75;;;3.88;;
69835;SDS011;57132;51.972;4.450;2023-03-13T16:20:10;18.05;;;3.58;;
69835;SDS011;57132;51.972;4.450;2023-03-13T16:22:39;30.27;;;5.53;;
69835;SDS011;57132;51.972;4.450;2023-03-13T16:25:04;26.98;;;4.60;;
69835;SDS011;57132;51.972;4.450;2023-03-13T16:27:31;19.42;;;4.40;;
69835;SDS011;57132;51.972;4.450;2023-03-13T16:29:56;24.30;;;4.63;;
69835;SDS011;57132;51.972;4.450;2023-03-13T16:32:22;33.58;;;4.53;;
69835;SDS011;57132;51.972;4.450;2023-03-13T16:34:49;32.10;;;5.63;;
69835;SDS011;57132;51.972;4.450;2023-03-13T16:37:16;32.55;;;5.65;;
69835;SDS011;57132;51.972;4.450;2023-03-13T16:39:43;27.33;;;4.53;;
69835;SDS011;57132;51.972;4.450;2023-03-13T16:42:09;27.90;;;4.75;;
69835;SDS011;57132;51.972;4.450;2023-03-13T16:44:35;32.25;;;5.50;;
69835;SDS011;57132;51.972;4.450;2023-03-13T16:47:01;25.38;;;4.97;;
69835;SDS011;57132;51.972;4.450;2023-03-13T16:49:26;34.97;;;5.50;;
69835;SDS011;57132;51.972;4.450;2023-03-13T16:51:52;30.77;;;5.43;;
69835;SDS011;57132;51.972;4.450;2023-03-13T16:54:17;34.33;;;4.78;;
69835;SDS011;57132;51.972;4.450;2023-03-13T16:56:43;32.15;;;4.85;;
69835;SDS011;57132;51.972;4.450;2023-03-13T16:59:12;34.65;;;5.75;;